Wednesday, January 17, 2018, 6:24 AM EST
Back to Local

KSFM, Sanford, Sanford Regional Airport

Location: Sanford, ME, United States Lat: 43.4
Local Time: 6:24 AM EST (11:24 GMT) Lon: -70.717
Time Zone: US/Eastern Elev: 242 ft

Show me the last for .
Show Decoded

2018-01-17 06:08 METAR KSFM 171108Z AUTO 35003KT 3/4SM -SN BR OVC008 M03/M04 A3035 RMK AO2 P0000
                 FZRANO RVRNO =
2018-01-17 05:56 METAR KSFM 171056Z AUTO 00000KT 1SM -SN BR OVC008 M03/M04 A3036 RMK AO2 SLP287
                 P0002 T10331044 FZRANO RVRNO =
2018-01-17 05:31 METAR KSFM 171031Z AUTO 01003KT 1 1/4SM -SN BR BKN008 OVC011 M03/M04 A3036 RMK
                 AO2 P0001 FZRANO =
2018-01-17 05:28 METAR KSFM 171028Z AUTO 01003KT 1SM -SN BR OVC011 M03/M04 A3035 RMK AO2 P0001
                 FZRANO RVRNO =
2018-01-17 05:07 METAR KSFM 171007Z AUTO 03003KT 1SM -SN BR OVC008 M03/M04 A3036 RMK AO2 P0000
                 FZRANO RVRNO =
2018-01-17 04:56 METAR KSFM 170956Z AUTO 03003KT 1 1/4SM -SN BR OVC008 M03/M04 A3036 RMK AO2
                 SLP289 P0001 T10331039 FZRANO =
2018-01-17 04:15 METAR KSFM 170915Z AUTO 05003KT 1 1/2SM -SN BR OVC008 M03/M04 A3037 RMK AO2 CIG
                 007V013 P0000 FZRANO =
2018-01-17 03:56 METAR KSFM 170856Z AUTO 03003KT 1SM -SN BR OVC008 M03/M04 A3037 RMK AO2 SLP291
                 P0002 60003 T10331039 58007 FZRANO RVRNO =
2018-01-17 03:21 METAR KSFM 170821Z AUTO 00000KT 1 1/4SM -SN BR BKN008 OVC014 M03/M04 A3038 RMK
                 AO2 P0001 FZRANO =
2018-01-17 03:04 METAR KSFM 170804Z AUTO 00000KT 1 1/2SM -SN BR SCT008 OVC014 M03/M04 A3039 RMK
                 AO2 P0001 FZRANO =
2018-01-17 02:56 METAR KSFM 170756Z AUTO 00000KT 1 1/4SM -SN BR BKN008 OVC014 M03/M04 A3038 RMK
                 AO2 SLP295 P0001 T10331039 FZRANO =
2018-01-17 02:51 METAR KSFM 170751Z AUTO 00000KT 1 1/4SM -SN BR BKN008 OVC014 M03/M04 A3039 RMK
                 AO2 P0001 FZRANO =
2018-01-17 02:33 METAR KSFM 170733Z AUTO 00000KT 1SM -SN BR OVC008 M03/M04 A3039 RMK AO2 P0001
                 FZRANO RVRNO =
2018-01-17 02:16 METAR KSFM 170716Z AUTO 00000KT 1 1/4SM -SN BR OVC011 M03/M04 A3039 RMK AO2
                 P0001 FZRANO =
2018-01-17 02:08 METAR KSFM 170708Z AUTO 00000KT 1SM -SN BR OVC011 M03/M04 A3039 RMK AO2 P0000
                 FZRANO RVRNO =
2018-01-17 01:56 METAR KSFM 170656Z AUTO 00000KT 3/4SM -SN BR OVC013 M03/M04 A3039 RMK AO2 SLP298
                 P0000 T10331039 FZRANO RVRNO =
2018-01-17 01:39 METAR KSFM 170639Z AUTO 00000KT 1SM -SN BR OVC013 M03/M04 A3039 RMK AO2 P0000
                 FZRANO RVRNO =
2018-01-17 01:32 METAR KSFM 170632Z AUTO 00000KT 1SM -SN BR OVC015 M03/M04 A3039 RMK AO2 P0000
                 FZRANO RVRNO =
2018-01-17 00:56 METAR KSFM 170556Z AUTO 00000KT 1 1/4SM -SN BR OVC017 M03/M04 A3038 RMK AO2
                 SLP296 P0001 60002 T10331044 11028 21033 56014 FZRANO =
2018-01-17 00:11 METAR KSFM 170511Z AUTO 00000KT 1 1/2SM -SN BR OVC017 M03/M04 A3040 RMK AO2
                 P0000 FZRANO =
2018-01-16 23:56 METAR KSFM 170456Z AUTO 00000KT 2SM -SN BR OVC019 M03/M04 A3040 RMK AO2 SLP302
                 P0000 T10281039 FZRANO =
2018-01-16 23:51 METAR KSFM 170451Z AUTO 00000KT 2SM -SN BR OVC019 M03/M04 A3040 RMK AO2 P0000
                 FZRANO =
2018-01-16 23:31 METAR KSFM 170431Z AUTO 00000KT 1 1/2SM -SN BR OVC017 M03/M05 A3041 RMK AO2 VIS
                 1 1/4V3 P0000 FZRANO =
2018-01-16 22:56 METAR KSFM 170356Z AUTO 00000KT 2 1/2SM -SN BR SCT017 OVC022 M03/M05 A3043 RMK
                 AO2 SLP310 P0001 T10331050 410061128 FZRANO =
2018-01-16 21:56 METAR KSFM 170256Z AUTO 00000KT 2 1/2SM -SN BR OVC022 M03/M05 A3044 RMK AO2
                 SLP313 P0000 60000 T10331050 58004 FZRANO =
2018-01-16 21:49 METAR KSFM 170249Z AUTO 00000KT 3SM -SN BR OVC022 M03/M04 A3044 RMK AO2 P0000
                 FZRANO =
2018-01-16 21:32 METAR KSFM 170232Z AUTO 00000KT 2 1/2SM -SN BR BKN022 OVC032 M03/M04 A3044 RMK
                 AO2 P0000 FZRANO =
2018-01-16 20:56 METAR KSFM 170156Z AUTO 00000KT 3SM -SN BR SCT021 OVC025 M03/M06 A3045 RMK AO2
                 UPB13E35SNB35 SLP318 P0000 T10331056 FZRANO =
2018-01-16 20:35 METAR KSFM 170135Z AUTO 00000KT 6SM -SN SCT024 BKN028 OVC036 M03/M06 A3045 RMK
                 AO2 UPB13E35SNB35 P0000 FZRANO =
2018-01-16 19:56 METAR KSFM 170056Z AUTO 00000KT 10SM CLR M03/M07 A3044 RMK AO2 SLP316 T10331072
                 FZRANO =
2018-01-16 18:56 METAR KSFM 162356Z AUTO 00000KT 10SM SCT049 BKN060 M03/M07 A3045 RMK AO2 SLP318
                 T10331072 11006 21044 53003 FZRANO =
2018-01-16 17:56 METAR KSFM 162256Z AUTO 00000KT 10SM CLR M04/M08 A3044 RMK AO2 SLP317 T10391078
                 FZRANO =
2018-01-16 16:56 METAR KSFM 162156Z AUTO 00000KT 10SM CLR M04/M09 A3044 RMK AO2 SLP316 T10391089
                 FZRANO =
2018-01-16 15:56 METAR KSFM 162056Z AUTO 22003KT 10SM SCT110 M02/M08 A3044 RMK AO2 SLP315
                 T10221078 58003 FZRANO =
2018-01-16 14:56 METAR KSFM 161956Z AUTO 21006KT 10SM SCT029 BKN100 M01/M08 A3045 RMK AO2 SLP317
                 T10061078 FZRANO =
2018-01-16 13:56 METAR KSFM 161856Z AUTO 21005KT 10SM FEW026 M01/M08 A3045 RMK AO2 SLP318
                 T10111078 FZRANO =
2018-01-16 13:43 METAR KSFM 161843Z AUTO VRB03KT 10SM SCT026 M02/M08 A3044 RMK AO2 FZRANO =
2018-01-16 12:56 METAR KSFM 161756Z AUTO VRB03KT 10SM OVC026 M02/M08 A3046 RMK AO2 SLP321
                 T10221083 11022 21122 58025 FZRANO =
2018-01-16 12:43 METAR KSFM 161743Z AUTO VRB03KT 10SM BKN028 OVC036 M02/M09 A3046 RMK AO2 FZRANO
                 =
2018-01-16 12:05 METAR KSFM 161705Z AUTO 22005KT 10SM SCT026 OVC032 M03/M09 A3047 RMK AO2 FZRANO
                 =
2018-01-16 11:56 METAR KSFM 161656Z AUTO 21006KT 10SM BKN026 OVC032 M03/M09 A3048 RMK AO2 SLP328
                 T10331094 FZRANO =
2018-01-16 10:56 METAR KSFM 161556Z AUTO 00000KT 10SM OVC028 M04/M10 A3051 RMK AO2 SLP340
                 T10391100 FZRANO =
2018-01-16 10:49 METAR KSFM 161549Z AUTO 29003KT 10SM BKN028 M04/M11 A3051 RMK AO2 FZRANO =
2018-01-16 09:56 METAR KSFM 161456Z AUTO 00000KT 10SM CLR M05/M11 A3053 RMK AO2 SLP346 T10501106
                 56003 FZRANO =
2018-01-16 08:56 METAR KSFM 161356Z AUTO 36004KT 10SM CLR M08/M12 A3053 RMK AO2 SLP347 T10831122
                 FZRANO =
2018-01-16 07:56 METAR KSFM 161256Z AUTO 00000KT 10SM CLR M11/M12 A3052 RMK AO2 SLP344 T11111122
                 FZRANO =
2018-01-16 06:56 METAR KSFM 161156Z AUTO 00000KT 10SM OVC120 M11/M13 A3054 RMK AO2 SLP349 60000
                 T11111128 11089 21128 53008 FZRANO =

Support USWX by starting your Amazon purchase here.